Time;durP1;ratioP1;P1;durP2;ratioP2;P2;SDS_P1;SDS_P2;PMS_P1;PMS_P2;Temp;Humidity;BMP_temperature;BMP_pressure;BME280_temperature;BME280_humidity;BME280_pressure;Samples;Min_cycle;Max_cycle;Signal;HPM_P1;HPM_P2
2023/02/08 00:00:55;;;;;;;28.10;16.15;;;-2.80;99.90;;;;;;5052597;28;20067;-79
2023/02/08 00:03:21;;;;;;;25.70;15.40;;;-2.80;99.90;;;;;;5055363;28;20033;-78
2023/02/08 00:05:46;;;;;;;31.50;16.60;;;-2.70;99.90;;;;;;5036980;28;20037;-78
2023/02/08 00:08:12;;;;;;;29.70;16.65;;;-2.40;99.90;;;;;;5064472;28;20037;-78
2023/02/08 00:10:38;;;;;;;28.48;15.90;;;-2.50;99.90;;;;;;5029751;28;20042;-78
2023/02/08 00:13:03;;;;;;;30.23;16.23;;;-2.60;99.90;;;;;;5057023;27;20040;-79
2023/02/08 00:15:29;;;;;;;29.38;16.63;;;-2.70;99.90;;;;;;5029655;28;20167;-79
2023/02/08 00:17:54;;;;;;;31.50;15.85;;;-2.70;99.90;;;;;;5051991;28;20066;-77
2023/02/08 00:20:20;;;;;;;27.92;16.48;;;-2.80;99.90;;;;;;5041934;28;20024;-77
2023/02/08 00:22:45;;;;;;;34.83;17.25;;;-2.90;99.90;;;;;;5051990;28;20040;-77
2023/02/08 00:25:11;;;;;;;30.05;15.80;;;-2.80;99.90;;;;;;5058308;28;20031;-77
2023/02/08 00:27:37;;;;;;;35.70;17.10;;;-2.80;99.90;;;;;;5032643;28;20044;-77
2023/02/08 00:30:03;;;;;;;34.13;16.13;;;-2.80;99.90;;;;;;5037728;28;20058;-77
2023/02/08 00:32:28;;;;;;;34.90;17.00;;;-2.80;99.90;;;;;;5032494;28;20117;-77
2023/02/08 00:34:54;;;;;;;34.33;17.08;;;-2.80;99.90;;;;;;5039426;28;20633;-77
2023/02/08 00:37:19;;;;;;;31.42;16.15;;;-2.80;99.90;;;;;;5078963;28;20042;-77
2023/02/08 00:39:45;;;;;;;27.98;16.08;;;-2.80;99.90;;;;;;5061373;28;20050;-77
2023/02/08 00:42:10;;;;;;;28.42;16.05;;;-2.90;99.90;;;;;;5082204;27;20038;-77
2023/02/08 00:44:36;;;;;;;28.05;15.80;;;-2.90;99.90;;;;;;5076250;28;20024;-78
2023/02/08 00:47:02;;;;;;;30.40;14.60;;;-2.90;99.90;;;;;;5075627;27;20051;-78
2023/02/08 00:49:27;;;;;;;30.95;16.20;;;-2.90;99.90;;;;;;5056429;28;20056;-78
2023/02/08 00:51:53;;;;;;;26.33;14.02;;;-2.90;99.90;;;;;;5050606;28;20986;-78
2023/02/08 00:54:19;;;;;;;28.23;15.40;;;-2.90;99.90;;;;;;5037526;28;20056;-78
2023/02/08 00:56:45;;;;;;;30.52;16.50;;;-2.90;99.90;;;;;;5060626;28;20023;-77
2023/02/08 00:59:10;;;;;;;29.88;15.50;;;-2.90;99.90;;;;;;5033284;28;20044;-77
2023/02/08 01:01:37;;;;;;;24.80;14.93;;;-3.00;99.90;;;;;;5068007;28;20032;-77
2023/02/08 01:04:03;;;;;;;28.30;15.95;;;-3.00;99.90;;;;;;5056941;28;20036;-77
2023/02/08 01:06:29;;;;;;;29.35;16.48;;;-2.90;99.90;;;;;;5049081;28;20116;-77
2023/02/08 01:08:54;;;;;;;26.92;15.43;;;-3.00;99.90;;;;;;5053215;28;20496;-78
2023/02/08 01:11:21;;;;;;;28.63;14.45;;;-3.10;99.90;;;;;;5037722;28;20436;-77
2023/02/08 01:13:47;;;;;;;26.48;16.23;;;-3.00;99.90;;;;;;5035528;28;20040;-77
2023/02/08 01:16:15;;;;;;;27.83;15.48;;;-3.00;99.90;;;;;;5033278;28;20039;-77
2023/02/08 01:18:42;;;;;;;26.55;15.43;;;-2.90;99.90;;;;;;5044918;28;20056;-77
2023/02/08 01:21:12;;;;;;;28.10;15.45;;;-2.90;99.90;;;;;;5039233;28;20037;-77
2023/02/08 01:23:38;;;;;;;28.20;15.52;;;-2.90;99.90;;;;;;5037093;28;20715;-78
2023/02/08 01:26:04;;;;;;;27.90;15.02;;;-2.90;99.90;;;;;;5048510;28;20104;-78
2023/02/08 01:28:29;;;;;;;28.20;14.43;;;-3.00;99.90;;;;;;5071227;28;20032;-77
2023/02/08 01:30:55;;;;;;;23.23;13.63;;;-3.10;99.90;;;;;;5061190;28;20495;-78
2023/02/08 01:33:21;;;;;;;28.08;14.80;;;-3.10;99.90;;;;;;5049265;28;20746;-77
2023/02/08 01:35:50;;;;;;;27.45;15.80;;;-3.20;99.90;;;;;;5055628;27;20138;-78
2023/02/08 01:38:16;;;;;;;27.63;15.63;;;-3.30;99.90;;;;;;5050556;28;20105;-77
2023/02/08 01:40:41;;;;;;;31.75;15.75;;;-3.30;99.90;;;;;;5057862;28;20143;-78
2023/02/08 01:43:28;;;;;;;25.60;14.63;;;-3.30;99.90;;;;;;5033816;27;20063;-77
2023/02/08 01:45:54;;;;;;;34.03;15.40;;;-3.30;99.90;;;;;;5046853;28;20116;-82
2023/02/08 01:48:24;;;;;;;33.63;17.98;;;-3.30;99.90;;;;;;5029768;28;20313;-83
2023/02/08 01:50:52;;;;;;;29.83;16.08;;;-3.30;99.90;;;;;;5068164;28;20385;-84
2023/02/08 01:53:17;;;;;;;28.70;15.57;;;-3.20;99.90;;;;;;5064548;28;20032;-83
2023/02/08 01:55:46;;;;;;;29.58;15.20;;;-3.20;99.90;;;;;;5063907;28;20031;-81
2023/02/08 01:58:12;;;;;;;31.73;15.65;;;-3.30;99.90;;;;;;5055210;28;20035;-84
2023/02/08 02:00:37;;;;;;;26.63;14.23;;;-3.40;99.90;;;;;;5032911;28;20049;-84
2023/02/08 02:03:03;;;;;;;24.35;13.55;;;-3.30;99.90;;;;;;5038139;28;20462;-83
2023/02/08 02:05:34;;;;;;;28.20;15.32;;;-3.30;99.90;;;;;;5032258;27;20027;-83
2023/02/08 02:07:59;;;;;;;22.98;14.30;;;-3.20;99.90;;;;;;5050798;28;20151;-83
2023/02/08 02:10:31;;;;;;;24.63;13.98;;;-3.30;99.90;;;;;;5072865;28;20103;-84
2023/02/08 02:13:00;;;;;;;30.65;16.08;;;-3.40;99.90;;;;;;5048566;28;20032;-83
2023/02/08 02:15:26;;;;;;;29.15;14.07;;;-3.40;99.90;;;;;;5055259;28;20101;-82
2023/02/08 02:17:52;;;;;;;30.77;15.55;;;-3.50;99.90;;;;;;5060438;27;20121;-83
2023/02/08 02:20:38;;;;;;;25.58;14.07;;;-3.40;99.90;;;;;;5065300;27;20070;-82
2023/02/08 02:23:31;;;;;;;28.63;12.93;;;-3.40;99.90;;;;;;5074022;28;20033;-85
2023/02/08 02:26:26;;;;;;;25.75;14.88;;;-3.50;99.90;;;;;;5057794;28;20479;-84
2023/02/08 02:29:19;;;;;;;29.13;13.52;;;-3.70;99.90;;;;;;5070057;28;20039;-82
2023/02/08 02:32:22;;;;;;;26.35;13.32;;;-3.60;99.90;;;;;;5086530;28;20506;-82
2023/02/08 02:34:56;;;;;;;24.80;13.55;;;-3.60;99.90;;;;;;5086949;28;20044;-82
2023/02/08 02:37:30;;;;;;;29.45;15.35;;;-3.60;99.90;;;;;;5072747;28;20040;-79
2023/02/08 02:40:19;;;;;;;25.20;14.18;;;-3.50;99.90;;;;;;5085143;28;20029;-81
2023/02/08 02:46:02;;;;;;;27.88;14.52;;;-3.40;99.90;;;;;;5038668;28;20054;-81
2023/02/08 02:48:46;;;;;;;25.38;14.35;;;-3.40;99.90;;;;;;5050161;28;20032;-80
2023/02/08 02:51:18;;;;;;;26.23;13.48;;;-3.60;99.90;;;;;;5034174;28;20036;-82
2023/02/08 02:53:46;;;;;;;24.05;13.70;;;-3.70;99.90;;;;;;5058492;28;20111;-82
2023/02/08 02:56:22;;;;;;;25.40;14.02;;;-3.80;99.90;;;;;;5057014;28;20035;-79
2023/02/08 02:58:48;;;;;;;22.70;13.02;;;-3.80;99.90;;;;;;5047690;28;20453;-77
2023/02/08 03:01:19;;;;;;;25.70;14.48;;;-3.80;99.90;;;;;;5051069;28;20040;-77
2023/02/08 03:03:45;;;;;;;25.67;14.45;;;-3.90;99.90;;;;;;5073732;28;20076;-78
2023/02/08 03:06:13;;;;;;;23.33;12.88;;;-3.90;99.90;;;;;;5067457;28;20040;-79
2023/02/08 03:08:59;;;;;;;22.55;12.48;;;-3.80;99.90;;;;;;5054832;28;20036;-78
2023/02/08 03:11:25;;;;;;;22.52;12.60;;;-3.90;99.90;;;;;;5040709;28;20037;-77
2023/02/08 03:14:20;;;;;;;22.63;12.52;;;-3.90;99.90;;;;;;5015660;28;20039;-83
2023/02/08 03:16:54;;;;;;;21.38;12.07;;;-3.90;99.90;;;;;;5066367;28;20090;-82
2023/02/08 03:19:27;;;;;;;24.13;12.65;;;-3.90;99.90;;;;;;5060556;28;20551;-84
2023/02/08 03:22:12;;;;;;;25.83;12.88;;;-3.90;99.90;;;;;;5075770;28;20031;-84
2023/02/08 03:24:45;;;;;;;22.20;12.00;;;-3.80;99.90;;;;;;5074690;28;20035;-83
2023/02/08 03:27:33;;;;;;;25.35;13.25;;;-3.70;99.90;;;;;;5062629;28;20032;-83
2023/02/08 03:29:58;;;;;;;23.00;12.63;;;-3.80;99.90;;;;;;5073234;28;20089;-84
2023/02/08 03:32:29;;;;;;;25.30;13.23;;;-3.80;99.90;;;;;;5074336;28;20028;-81
2023/02/08 03:35:05;;;;;;;19.90;11.85;;;-3.80;99.90;;;;;;5041743;28;20086;-82
2023/02/08 03:37:35;;;;;;;18.27;11.10;;;-3.90;99.90;;;;;;5044382;28;20065;-82
2023/02/08 03:40:31;;;;;;;20.02;12.00;;;-3.80;99.90;;;;;;5059776;28;20043;-82
2023/02/08 03:42:58;;;;;;;21.43;12.03;;;-3.70;99.90;;;;;;5076001;28;20101;-83
2023/02/08 03:45:27;;;;;;;21.92;11.65;;;-3.80;99.90;;;;;;5046400;28;21143;-84
2023/02/08 03:47:53;;;;;;;21.98;13.02;;;-4.00;99.90;;;;;;5064084;28;20032;-83
2023/02/08 03:50:19;;;;;;;21.05;11.55;;;-4.00;99.90;;;;;;5053712;28;20650;-83
2023/02/08 03:52:45;;;;;;;25.48;13.25;;;-4.10;99.90;;;;;;5042569;27;20107;-84
2023/02/08 03:55:21;;;;;;;20.98;12.43;;;-4.00;99.90;;;;;;5054489;28;20034;-83
2023/02/08 03:57:55;;;;;;;25.00;14.07;;;-4.00;99.90;;;;;;5057247;28;20032;-84
2023/02/08 04:00:20;;;;;;;28.50;12.32;;;-3.90;99.90;;;;;;5052131;28;20484;-83
2023/02/08 04:02:55;;;;;;;22.20;12.40;;;-4.00;99.90;;;;;;5066400;28;20032;-84
2023/02/08 04:05:21;;;;;;;22.55;11.93;;;-4.00;99.90;;;;;;5067238;28;20028;-83
2023/02/08 04:07:47;;;;;;;21.60;12.35;;;-4.10;99.90;;;;;;5089326;28;20036;-84
2023/02/08 04:10:12;;;;;;;27.02;13.38;;;-4.20;99.90;;;;;;5065335;28;20024;-82
2023/02/08 04:12:38;;;;;;;22.73;12.80;;;-4.30;99.90;;;;;;5066661;28;20086;-82
2023/02/08 04:15:04;;;;;;;25.35;13.23;;;-4.30;99.90;;;;;;5055132;28;20111;-84
2023/02/08 04:17:31;;;;;;;24.13;13.32;;;-4.20;99.90;;;;;;5070542;28;20028;-83
2023/02/08 04:19:57;;;;;;;22.75;12.82;;;-4.10;99.90;;;;;;5090046;28;20472;-84
2023/02/08 04:22:22;;;;;;;21.92;12.30;;;-4.20;99.90;;;;;;5074632;28;20043;-81
2023/02/08 04:24:48;;;;;;;24.52;12.90;;;-4.20;99.90;;;;;;5051866;28;20036;-82
2023/02/08 04:27:14;;;;;;;24.15;13.02;;;-4.30;99.90;;;;;;5063194;28;20037;-81
2023/02/08 04:29:40;;;;;;;24.23;12.63;;;-4.20;99.90;;;;;;5051873;28;20388;-79
2023/02/08 04:32:10;;;;;;;21.83;11.80;;;-4.20;99.90;;;;;;5049239;28;20488;-81
2023/02/08 04:34:38;;;;;;;20.00;11.45;;;-4.30;99.90;;;;;;5066648;28;20438;-83
2023/02/08 04:37:04;;;;;;;22.70;12.32;;;-4.30;99.90;;;;;;5044974;28;20159;-81
2023/02/08 04:39:30;;;;;;;22.23;12.43;;;-4.30;99.90;;;;;;5059918;28;20123;-80
2023/02/08 04:41:55;;;;;;;30.17;13.93;;;-4.30;99.90;;;;;;5059303;28;20457;-82
2023/02/08 04:44:21;;;;;;;25.67;12.52;;;-4.30;99.90;;;;;;5047716;28;20450;-82
2023/02/08 04:46:49;;;;;;;22.25;13.15;;;-4.30;99.90;;;;;;5046210;28;20036;-83
2023/02/08 04:49:15;;;;;;;28.55;13.30;;;-4.30;99.90;;;;;;5051785;28;20556;-83
2023/02/08 04:51:40;;;;;;;24.23;13.30;;;-4.30;99.90;;;;;;5047204;28;20032;-81
2023/02/08 04:54:06;;;;;;;22.52;13.00;;;-4.50;99.90;;;;;;5037260;28;20103;-83
2023/02/08 04:56:31;;;;;;;25.45;13.75;;;-4.50;99.90;;;;;;5050935;27;20036;-82
2023/02/08 04:58:57;;;;;;;27.35;13.55;;;-4.50;99.90;;;;;;5030170;28;20036;-82
2023/02/08 05:01:23;;;;;;;25.35;13.40;;;-4.50;99.90;;;;;;5013279;28;20048;-83
2023/02/08 05:03:48;;;;;;;24.42;13.07;;;-4.50;99.90;;;;;;5058630;28;20070;-84
2023/02/08 05:06:15;;;;;;;26.52;14.70;;;-4.50;99.90;;;;;;5076755;28;20043;-81
2023/02/08 05:08:41;;;;;;;25.48;13.20;;;-4.40;99.90;;;;;;5068148;28;20034;-83
2023/02/08 05:11:06;;;;;;;23.08;12.93;;;-4.50;99.90;;;;;;5057238;28;20032;-83
2023/02/08 05:13:33;;;;;;;27.05;13.77;;;-4.50;99.90;;;;;;5059714;28;20028;-82
2023/02/08 05:15:58;;;;;;;26.08;13.48;;;-4.40;99.90;;;;;;5050462;28;20029;-82
2023/02/08 05:18:24;;;;;;;22.98;13.45;;;-4.40;99.90;;;;;;5052241;28;20100;-83
2023/02/08 05:20:56;;;;;;;25.63;14.43;;;-4.40;99.90;;;;;;5029534;28;20460;-83
2023/02/08 05:23:21;;;;;;;23.20;13.07;;;-4.50;99.90;;;;;;5040546;28;20021;-81
2023/02/08 05:25:47;;;;;;;26.85;13.02;;;-4.50;99.90;;;;;;5058724;28;20449;-82
2023/02/08 05:28:13;;;;;;;26.08;13.73;;;-4.40;99.90;;;;;;5067549;28;20724;-82
2023/02/08 05:30:38;;;;;;;28.67;14.13;;;-4.40;99.90;;;;;;5062573;28;20029;-82
2023/02/08 05:33:04;;;;;;;21.10;12.73;;;-4.50;99.90;;;;;;5061450;28;20032;-80
2023/02/08 05:35:29;;;;;;;19.77;12.75;;;-4.50;99.90;;;;;;5078973;28;20024;-82
2023/02/08 05:37:55;;;;;;;24.08;13.27;;;-4.50;99.90;;;;;;5079145;28;20398;-82
2023/02/08 05:40:20;;;;;;;22.40;13.50;;;-4.60;99.90;;;;;;5048944;28;20465;-82
2023/02/08 05:42:46;;;;;;;22.38;12.93;;;-4.60;99.90;;;;;;5050268;28;20024;-81
2023/02/08 05:45:12;;;;;;;27.05;12.82;;;-4.50;99.90;;;;;;5046605;27;20476;-80
2023/02/08 05:47:38;;;;;;;24.00;13.10;;;-4.50;99.90;;;;;;5041783;28;20050;-79
2023/02/08 05:50:04;;;;;;;22.38;12.63;;;-4.50;99.90;;;;;;5032063;28;20032;-79
2023/02/08 05:52:29;;;;;;;24.13;13.07;;;-4.50;99.90;;;;;;5055349;28;20037;-82
2023/02/08 05:54:55;;;;;;;24.83;13.05;;;-4.50;99.90;;;;;;5031672;28;20569;-81
2023/02/08 05:57:21;;;;;;;19.65;11.43;;;-4.60;99.90;;;;;;5029559;28;20031;-81
2023/02/08 05:59:47;;;;;;;19.67;11.57;;;-4.60;99.90;;;;;;5062973;28;20036;-84
2023/02/08 06:02:13;;;;;;;20.02;12.02;;;-4.60;99.90;;;;;;5013030;27;20032;-81
2023/02/08 06:04:38;;;;;;;20.20;11.43;;;-4.50;99.90;;;;;;5037420;28;20036;-83
2023/02/08 06:07:04;;;;;;;25.02;12.45;;;-4.60;99.90;;;;;;5039253;28;20036;-81
2023/02/08 06:09:30;;;;;;;23.73;11.52;;;-4.60;99.90;;;;;;5057976;28;20037;-84
2023/02/08 06:11:56;;;;;;;26.73;12.65;;;-4.60;99.90;;;;;;5059290;28;20386;-83
2023/02/08 06:14:21;;;;;;;26.17;12.63;;;-4.70;99.90;;;;;;5056965;28;20042;-83
2023/02/08 06:16:48;;;;;;;19.60;11.02;;;-4.70;99.90;;;;;;5055170;28;20094;-80
2023/02/08 06:19:13;;;;;;;21.60;12.23;;;-4.60;99.90;;;;;;5057162;28;20067;-80
2023/02/08 06:21:39;;;;;;;26.70;12.60;;;-4.60;99.90;;;;;;5048368;28;20452;-82
2023/02/08 06:24:05;;;;;;;25.17;12.05;;;-4.60;99.90;;;;;;5048129;28;20056;-81
2023/02/08 06:26:32;;;;;;;23.70;12.68;;;-4.60;99.90;;;;;;5015581;28;20038;-79
2023/02/08 06:28:58;;;;;;;23.95;12.40;;;-4.50;99.90;;;;;;5056742;28;20521;-81
2023/02/08 06:31:24;;;;;;;23.63;12.43;;;-4.20;99.90;;;;;;5048541;27;20489;-81
2023/02/08 06:33:50;;;;;;;19.63;10.95;;;-4.40;99.90;;;;;;5081657;28;20036;-81
2023/02/08 06:36:15;;;;;;;21.05;11.68;;;-4.50;99.90;;;;;;5059903;28;20024;-81
2023/02/08 06:38:41;;;;;;;21.70;11.38;;;-4.60;99.90;;;;;;5072533;28;20039;-81
2023/02/08 06:41:06;;;;;;;18.48;10.82;;;-4.50;99.90;;;;;;5061402;27;20408;-81
2023/02/08 06:43:32;;;;;;;24.35;11.68;;;-4.60;99.90;;;;;;5054995;28;20033;-80
2023/02/08 06:45:57;;;;;;;24.67;12.05;;;-4.70;99.90;;;;;;5018986;28;20039;-82
2023/02/08 06:48:23;;;;;;;21.60;11.85;;;-4.70;99.90;;;;;;5075934;28;20103;-80
2023/02/08 06:50:51;;;;;;;18.42;10.65;;;-4.60;99.90;;;;;;5032528;28;20415;-81
2023/02/08 06:53:17;;;;;;;19.55;11.45;;;-4.70;99.90;;;;;;5051658;28;20037;-81
2023/02/08 06:55:47;;;;;;;25.08;12.35;;;-4.60;99.90;;;;;;5051421;28;20036;-80
2023/02/08 06:58:13;;;;;;;21.95;11.52;;;-4.80;99.90;;;;;;5037960;28;20697;-81
2023/02/08 07:00:38;;;;;;;21.35;11.82;;;-4.70;99.90;;;;;;5030017;28;20063;-80
2023/02/08 07:03:04;;;;;;;21.58;11.38;;;-4.80;99.90;;;;;;5064177;28;20028;-80
2023/02/08 07:05:29;;;;;;;17.98;9.73;;;-4.80;99.90;;;;;;5045782;28;20036;-81
2023/02/08 07:07:55;;;;;;;19.70;9.65;;;-4.70;99.90;;;;;;5032286;28;20043;-80
2023/02/08 07:10:20;;;;;;;18.52;11.18;;;-4.80;99.90;;;;;;5038593;28;20082;-80
2023/02/08 07:12:46;;;;;;;22.02;12.02;;;-4.60;99.90;;;;;;5053296;28;20033;-81
2023/02/08 07:15:12;;;;;;;24.63;11.57;;;-4.70;99.90;;;;;;5042904;28;20404;-81
2023/02/08 07:17:38;;;;;;;25.00;11.13;;;-4.80;99.90;;;;;;5059597;28;20518;-81
2023/02/08 07:20:03;;;;;;;23.35;12.63;;;-4.80;99.90;;;;;;5044671;28;20037;-80
2023/02/08 07:22:30;;;;;;;21.73;11.75;;;-4.80;99.90;;;;;;5047220;28;20029;-80
2023/02/08 07:24:56;;;;;;;20.08;10.45;;;-4.80;99.90;;;;;;5072628;27;20074;-80
2023/02/08 07:27:22;;;;;;;21.90;12.73;;;-4.80;99.90;;;;;;5055428;28;20395;-80
2023/02/08 07:29:48;;;;;;;23.83;11.48;;;-4.70;99.90;;;;;;5047193;28;20546;-81
2023/02/08 07:32:14;;;;;;;23.30;12.48;;;-4.70;99.90;;;;;;5075636;28;20069;-80
2023/02/08 07:34:39;;;;;;;24.08;11.23;;;-4.70;99.90;;;;;;5067643;28;21175;-80
2023/02/08 07:37:05;;;;;;;22.25;11.85;;;-4.60;99.90;;;;;;5015719;28;20492;-79
2023/02/08 07:39:31;;;;;;;20.63;11.43;;;-4.60;99.90;;;;;;5007884;28;20035;-82
2023/02/08 07:41:57;;;;;;;22.35;11.55;;;-4.50;99.90;;;;;;5030823;28;20048;-81
2023/02/08 07:44:22;;;;;;;20.67;10.25;;;-4.50;99.90;;;;;;5057567;28;20502;-81
2023/02/08 07:46:48;;;;;;;22.52;10.15;;;-4.10;99.90;;;;;;5033877;28;20106;-81
2023/02/08 07:49:14;;;;;;;27.33;11.77;;;-4.00;99.90;;;;;;5066029;27;20070;-81
2023/02/08 07:51:39;;;;;;;23.17;10.45;;;-4.10;99.90;;;;;;5036090;28;20024;-80
2023/02/08 07:54:05;;;;;;;19.50;11.05;;;-4.00;99.90;;;;;;5026924;28;20037;-82
2023/02/08 07:56:31;;;;;;;26.83;12.95;;;-3.80;99.90;;;;;;5048807;28;20511;-81
2023/02/08 07:58:56;;;;;;;24.10;10.88;;;-3.90;99.90;;;;;;5051272;28;20040;-81
2023/02/08 08:01:22;;;;;;;23.80;11.82;;;-3.90;99.90;;;;;;5029096;28;20090;-82
2023/02/08 08:03:48;;;;;;;25.52;12.00;;;-3.90;99.90;;;;;;5055039;28;20112;-81
2023/02/08 08:06:13;;;;;;;20.95;10.90;;;-4.00;99.90;;;;;;5045421;28;20044;-81
2023/02/08 08:08:39;;;;;;;22.20;12.75;;;-3.70;99.90;;;;;;5072956;28;20031;-81
2023/02/08 08:11:05;;;;;;;20.77;11.23;;;-3.60;99.90;;;;;;5049980;28;20055;-81
2023/02/08 08:13:30;;;;;;;26.05;11.82;;;-3.60;99.90;;;;;;5045808;28;20089;-81
2023/02/08 08:15:56;;;;;;;18.20;8.80;;;-3.30;99.90;;;;;;5058448;28;20139;-81
2023/02/08 08:18:21;;;;;;;21.90;10.70;;;-3.10;99.90;;;;;;5054808;28;20647;-81
2023/02/08 08:20:47;;;;;;;21.95;10.52;;;-2.90;99.90;;;;;;5063223;28;21568;-81
2023/02/08 08:23:13;;;;;;;22.42;12.48;;;-2.80;99.90;;;;;;5049427;28;20032;-81
2023/02/08 08:25:38;;;;;;;21.75;11.77;;;-2.90;99.90;;;;;;5031222;28;20055;-81
2023/02/08 08:28:04;;;;;;;21.40;11.68;;;-3.20;99.90;;;;;;5060251;28;20032;-81
2023/02/08 08:30:29;;;;;;;19.98;10.48;;;-3.00;99.90;;;;;;5073844;28;20029;-82
2023/02/08 08:32:55;;;;;;;20.63;10.77;;;-2.80;99.90;;;;;;5079806;28;20111;-81
2023/02/08 08:35:20;;;;;;;18.05;10.35;;;-2.60;99.90;;;;;;5081258;28;20444;-81
2023/02/08 08:37:46;;;;;;;22.80;11.07;;;-2.40;99.90;;;;;;5082735;28;20029;-82
2023/02/08 08:40:11;;;;;;;19.58;10.02;;;-2.20;99.90;;;;;;5062267;28;20412;-82
2023/02/08 08:42:40;;;;;;;18.25;9.68;;;-2.00;99.90;;;;;;5063943;28;20182;-83
2023/02/08 08:45:06;;;;;;;26.40;12.02;;;-1.90;99.90;;;;;;5057142;28;20515;-82
2023/02/08 08:47:32;;;;;;;18.33;9.38;;;-1.70;99.90;;;;;;5076264;28;20024;-81
2023/02/08 08:49:57;;;;;;;21.08;11.38;;;-1.60;99.90;;;;;;5059294;28;20059;-82
2023/02/08 08:52:23;;;;;;;20.88;11.52;;;-1.60;99.90;;;;;;5044848;28;20036;-82
2023/02/08 08:54:49;;;;;;;26.30;12.68;;;-1.60;99.90;;;;;;5033445;28;20110;-81
2023/02/08 08:57:15;;;;;;;25.70;10.27;;;-1.50;99.90;;;;;;5060474;28;20123;-82
2023/02/08 08:59:40;;;;;;;18.55;10.68;;;-1.50;99.90;;;;;;5045296;28;20029;-82
2023/02/08 09:02:12;;;;;;;22.23;11.88;;;-1.20;99.90;;;;;;5060242;28;20039;-82
2023/02/08 09:04:39;;;;;;;22.73;11.55;;;-1.10;99.90;;;;;;5063562;28;20488;-82
2023/02/08 09:07:05;;;;;;;20.40;11.02;;;-1.10;99.90;;;;;;5061278;28;20056;-82
2023/02/08 09:09:30;;;;;;;19.23;11.25;;;-1.10;99.90;;;;;;5064040;28;20206;-82
2023/02/08 09:11:56;;;;;;;23.13;11.88;;;-1.20;99.90;;;;;;5073915;28;20507;-83
2023/02/08 09:14:21;;;;;;;17.52;10.38;;;-0.80;99.90;;;;;;5075441;28;20040;-83
2023/02/08 09:16:48;;;;;;;19.85;11.00;;;-0.40;99.90;;;;;;5082822;28;20457;-82
2023/02/08 09:19:14;;;;;;;17.08;9.90;;;-0.40;99.90;;;;;;5078833;28;20036;-80
2023/02/08 09:21:40;;;;;;;17.65;9.68;;;-0.30;99.90;;;;;;5064539;28;20036;-82
2023/02/08 09:24:05;;;;;;;18.08;10.60;;;0.00;99.90;;;;;;5078406;28;20036;-82
2023/02/08 09:26:31;;;;;;;17.83;10.77;;;0.40;99.90;;;;;;5063920;28;20116;-82
2023/02/08 09:28:57;;;;;;;16.52;10.45;;;0.50;99.90;;;;;;5063056;28;20033;-82
2023/02/08 09:31:24;;;;;;;16.63;9.07;;;0.70;99.90;;;;;;5072193;28;20035;-81
2023/02/08 09:33:50;;;;;;;16.60;10.05;;;0.90;99.90;;;;;;5052941;28;20071;-82
2023/02/08 09:36:16;;;;;;;14.73;9.40;;;1.00;99.90;;;;;;5057074;28;20442;-82
2023/02/08 09:38:42;;;;;;;19.10;10.95;;;1.00;99.90;;;;;;5037441;28;20483;-83
2023/02/08 09:41:32;;;;;;;16.17;9.13;;;1.10;99.90;;;;;;5049438;28;20029;-82
2023/02/08 09:44:25;;;;;;;12.55;7.97;;;1.20;99.90;;;;;;5068410;28;20028;-83
2023/02/08 09:47:05;;;;;;;17.65;10.38;;;1.40;99.90;;;;;;5079993;28;20024;-83
2023/02/08 09:49:43;;;;;;;17.58;8.15;;;1.60;99.90;;;;;;5068398;28;20076;-82
2023/02/08 09:52:14;;;;;;;14.65;9.02;;;1.90;99.90;;;;;;5061039;28;20024;-81
2023/02/08 09:54:47;;;;;;;18.67;9.93;;;2.00;99.90;;;;;;5072582;28;20033;-82
2023/02/08 09:57:17;;;;;;;14.13;8.88;;;2.10;99.90;;;;;;5068029;28;20036;-83
2023/02/08 09:59:50;;;;;;;14.75;9.45;;;2.10;99.90;;;;;;5054285;28;20119;-82
2023/02/08 10:02:26;;;;;;;16.08;10.20;;;2.30;99.90;;;;;;5081325;28;20050;-83
2023/02/08 10:04:57;;;;;;;13.80;8.65;;;2.40;99.90;;;;;;5078357;28;20434;-83
2023/02/08 10:07:27;;;;;;;16.40;8.82;;;2.60;99.90;;;;;;5076498;28;20090;-84
2023/02/08 10:10:00;;;;;;;15.32;7.85;;;2.40;99.90;;;;;;5025174;28;20042;-83
2023/02/08 10:12:37;;;;;;;17.70;7.47;;;2.60;99.90;;;;;;5066873;28;20448;-83
2023/02/08 10:15:22;;;;;;;12.18;7.35;;;3.20;99.90;;;;;;5033677;28;20057;-82
2023/02/08 10:17:51;;;;;;;12.43;7.28;;;3.30;99.90;;;;;;5054923;28;20055;-82
2023/02/08 10:21:14;;;;;;;10.15;6.55;;;3.40;99.90;;;;;;5065336;28;20040;-84
2023/02/08 10:23:42;;;;;;;11.55;6.80;;;3.20;99.90;;;;;;4997272;28;20033;-82
2023/02/08 10:26:26;;;;;;;11.32;6.20;;;2.70;99.90;;;;;;5005105;28;20057;-83
2023/02/08 10:29:23;;;;;;;12.00;7.10;;;3.30;99.90;;;;;;5025717;28;20035;-83
2023/02/08 10:31:56;;;;;;;9.48;6.22;;;4.00;99.90;;;;;;5052721;28;20039;-82
2023/02/08 10:34:29;;;;;;;10.68;6.93;;;4.30;99.90;;;;;;5057407;28;20399;-83
2023/02/08 10:36:54;;;;;;;11.95;6.30;;;4.30;99.90;;;;;;5070202;28;20729;-83
2023/02/08 10:39:25;;;;;;;9.07;5.97;;;4.60;99.90;;;;;;5046094;28;20024;-83
2023/02/08 10:41:50;;;;;;;7.85;4.63;;;4.60;99.90;;;;;;5059892;28;20028;-83
2023/02/08 10:44:54;;;;;;;8.02;5.28;;;3.50;99.90;;;;;;5061119;28;20457;-83
2023/02/08 10:47:33;;;;;;;11.60;4.18;;;4.00;99.90;;;;;;5040850;28;20102;-82
2023/02/08 10:50:29;;;;;;;8.82;5.43;;;3.60;99.90;;;;;;5061943;28;20543;-82
2023/02/08 10:52:55;;;;;;;9.85;3.60;;;3.50;99.90;;;;;;5080059;28;20036;-83
2023/02/08 10:55:21;;;;;;;10.32;5.00;;;4.40;99.90;;;;;;5076047;28;20037;-83
2023/02/08 10:57:47;;;;;;;6.30;4.38;;;4.90;99.90;;;;;;5064083;28;20451;-84
2023/02/08 11:00:19;;;;;;;8.82;5.65;;;5.00;99.90;;;;;;5063477;28;20411;-80
2023/02/08 11:02:46;;;;;;;5.60;3.55;;;4.80;99.90;;;;;;5074839;28;20032;-81
2023/02/08 11:05:29;;;;;;;5.80;3.70;;;4.80;99.90;;;;;;5044293;28;20032;-82
2023/02/08 11:08:12;;;;;;;5.63;4.40;;;5.60;99.90;;;;;;5076675;28;20114;-83
2023/02/08 11:10:38;;;;;;;8.82;4.30;;;6.00;99.90;;;;;;5075435;28;20153;-82
2023/02/08 11:13:05;;;;;;;6.93;3.90;;;5.60;99.90;;;;;;5039794;28;20036;-82
2023/02/08 11:15:46;;;;;;;5.97;4.05;;;6.20;99.90;;;;;;5070250;28;20052;-82
2023/02/08 11:18:24;;;;;;;7.07;3.97;;;6.90;99.90;;;;;;5074135;28;20040;-82
2023/02/08 11:20:52;;;;;;;7.82;4.22;;;6.80;99.90;;;;;;5072636;28;20028;-82
2023/02/08 11:23:29;;;;;;;9.95;4.20;;;6.00;99.90;;;;;;5055024;28;20063;-82
2023/02/08 11:26:12;;;;;;;7.63;3.78;;;5.30;99.90;;;;;;5067283;28;20028;-82
2023/02/08 11:28:38;;;;;;;7.47;4.00;;;6.70;99.90;;;;;;5059354;28;20557;-82
2023/02/08 11:31:14;;;;;;;6.80;4.15;;;7.60;99.90;;;;;;5036464;28;20032;-82
2023/02/08 11:33:56;;;;;;;6.15;3.65;;;7.90;99.90;;;;;;5076413;28;20039;-82
2023/02/08 11:36:22;;;;;;;6.30;3.63;;;8.30;99.90;;;;;;5052018;28;20032;-83
2023/02/08 11:38:47;;;;;;;5.65;3.53;;;8.60;99.90;;;;;;4358505;28;10000136;-82
2023/02/08 11:41:16;;;;;;;5.93;3.55;;;8.40;99.90;;;;;;5068322;28;20479;-83
2023/02/08 11:43:41;;;;;;;8.85;3.83;;;8.30;99.90;;;;;;5067514;28;20522;-82
2023/02/08 11:46:07;;;;;;;6.20;3.67;;;8.70;99.90;;;;;;5045221;28;20102;-83
2023/02/08 11:48:43;;;;;;;7.72;5.13;;;9.20;99.90;;;;;;5056763;28;20099;-82
2023/02/08 11:51:11;;;;;;;4.55;3.00;;;8.60;99.90;;;;;;5071933;28;20028;-82
2023/02/08 11:53:39;;;;;;;8.48;3.60;;;8.00;99.90;;;;;;5052735;28;20089;-82
2023/02/08 11:56:24;;;;;;;5.50;3.30;;;8.60;99.90;;;;;;5053655;28;20506;-81
2023/02/08 11:59:21;;;;;;;5.35;3.20;;;9.10;99.90;;;;;;5064725;28;20388;-82
2023/02/08 12:01:47;;;;;;;6.53;3.97;;;9.60;99.90;;;;;;5044723;28;20021;-83
2023/02/08 12:04:13;;;;;;;7.68;3.63;;;9.90;99.90;;;;;;5036108;28;20861;-83
2023/02/08 12:06:59;;;;;;;10.93;3.80;;;9.90;99.90;;;;;;5061709;28;20036;-79
2023/02/08 12:09:50;;;;;;;5.80;3.30;;;9.80;99.90;;;;;;5068833;28;20036;-79
2023/02/08 12:12:38;;;;;;;5.05;3.10;;;8.50;99.90;;;;;;5058816;27;20097;-79
2023/02/08 12:15:25;;;;;;;4.38;3.28;;;9.40;99.90;;;;;;5045803;28;20050;-78
2023/02/08 12:17:55;;;;;;;4.53;3.17;;;9.00;99.90;;;;;;5063775;28;20725;-78
2023/02/08 12:20:40;;;;;;;4.75;2.72;;;10.30;99.90;;;;;;5061402;28;20035;-78
2023/02/08 12:23:24;;;;;;;7.30;3.40;;;11.00;99.90;;;;;;5057597;27;20468;-78
2023/02/08 12:26:01;;;;;;;4.05;2.55;;;9.60;99.90;;;;;;5071497;28;20031;-78
2023/02/08 12:28:48;;;;;;;5.43;2.90;;;9.90;99.90;;;;;;5075881;28;20035;-79
2023/02/08 12:31:34;;;;;;;4.63;3.20;;;10.60;99.90;;;;;;5072846;28;20503;-78
2023/02/08 12:34:32;;;;;;;7.38;3.30;;;9.70;99.90;;;;;;5054865;28;20163;-79
2023/02/08 12:43:12;;;;;;;3.17;2.53;;;11.10;99.90;;;;;;5068920;28;20036;-79
2023/02/08 12:45:47;;;;;;;3.53;2.60;;;10.70;99.90;;;;;;5057367;28;20032;-79
2023/02/08 12:48:35;;;;;;;4.85;3.05;;;11.00;99.90;;;;;;5070534;28;20492;-80
2023/02/08 12:51:38;;;;;;;3.47;2.78;;;10.80;99.90;;;;;;5040773;28;20135;-80
2023/02/08 12:54:09;;;;;;;6.85;2.90;;;10.40;99.90;;;;;;4962858;28;20082;-79
2023/02/08 12:56:37;;;;;;;5.45;2.90;;;9.70;99.90;;;;;;5024974;28;20094;-79